createdAt,value
2018-05-23T00:02:27.109Z,94827.34
2018-05-23T00:05:32.226Z,94821.36
2018-05-23T00:08:35.478Z,94810.48
2018-05-23T00:11:38.762Z,94809.87
2018-05-23T00:14:42.015Z,94812.38
2018-05-23T00:17:45.283Z,94814.02
2018-05-23T00:20:48.553Z,94816.42
2018-05-23T00:23:51.823Z,94808.45
2018-05-23T00:26:55.103Z,94808.71
2018-05-23T00:29:58.375Z,94812.07
2018-05-23T00:33:02.406Z,94812.92
2018-05-23T00:36:05.693Z,94816.31
2018-05-23T00:39:09.702Z,94817.92
2018-05-23T00:42:13.777Z,94815.96
2018-05-23T00:45:17.054Z,94815.82
2018-05-23T00:48:20.311Z,94821.81
2018-05-23T00:51:24.334Z,94830.51
2018-05-23T00:54:28.355Z,94826.29
2018-05-23T00:57:32.373Z,94829.16
2018-05-23T01:00:35.662Z,94824.59
2018-05-23T01:03:39.675Z,94831.64
2018-05-23T01:06:43.795Z,94830.05
2018-05-23T01:09:47.909Z,94826.05
2018-05-23T01:12:51.224Z,94828.05
2018-05-23T01:15:54.493Z,94828.25
2018-05-23T01:18:58.572Z,94829.79
2018-05-23T01:22:01.829Z,94835.79
2018-05-23T01:25:05.087Z,94838.50
2018-05-23T01:28:08.353Z,94844.83
2018-05-23T01:31:11.617Z,94838.97
2018-05-23T01:34:14.894Z,94848.39
2018-05-23T01:37:18.918Z,94851.23
2018-05-23T01:40:22.941Z,94852.69
2018-05-23T01:43:26.222Z,94853.28
2018-05-23T01:46:29.512Z,94848.75
2018-05-23T01:49:32.754Z,94851.84
2018-05-23T01:52:36.009Z,94857.57
2018-05-23T01:55:40.029Z,94862.22
2018-05-23T01:58:44.156Z,94866.16
2018-05-23T02:01:48.222Z,94869.55
2018-05-23T02:04:51.476Z,94875.87
2018-05-23T02:07:54.751Z,94877.63
2018-05-23T02:10:58.901Z,94875.79
2018-05-23T02:14:02.154Z,94880.29
2018-05-23T02:17:05.415Z,94878.56
2018-05-23T02:20:08.802Z,94872.78
2018-05-23T02:23:12.083Z,94877.06
2018-05-23T02:26:15.350Z,94875.93
2018-05-23T02:29:19.411Z,94882.33
2018-05-23T02:32:22.679Z,94880.55
2018-05-23T02:35:25.945Z,94885.27
2018-05-23T02:38:29.208Z,94885.94
2018-05-23T02:41:32.685Z,94887.69
2018-05-23T02:44:35.982Z,94889.61
2018-05-23T02:47:39.284Z,94896.01
2018-05-23T02:50:42.547Z,94903.16
2018-05-23T02:53:45.807Z,94904.17
2018-05-23T02:56:49.102Z,94908.98
2018-05-23T02:59:52.363Z,94911.92
2018-05-23T03:02:56.470Z,94914.73
2018-05-23T03:05:59.668Z,94916.94
2018-05-23T03:09:03.697Z,94921.71
2018-05-23T03:12:06.986Z,94926.83
2018-05-23T03:15:11.094Z,94923.17
2018-05-23T03:18:15.155Z,94924.45
2018-05-23T03:21:18.472Z,94931.55
2018-05-23T03:24:21.814Z,94928.23
2018-05-23T03:27:25.179Z,94937.53
2018-05-23T03:30:29.159Z,94927.41
2018-05-23T03:33:32.513Z,94931.91
2018-05-23T03:36:36.101Z,94934.74
2018-05-23T03:39:39.361Z,94931.81
2018-05-23T03:42:42.628Z,94940.63
2018-05-23T03:45:45.886Z,94943.25
2018-05-23T03:48:49.170Z,94950.64
2018-05-23T03:51:52.444Z,94949.41
2018-05-23T03:54:55.694Z,94947.52
2018-05-23T03:57:58.969Z,94954.08
2018-05-23T04:01:20.087Z,94953.83
2018-05-23T04:04:41.093Z,94951.16
2018-05-23T04:07:45.173Z,94947.37
2018-05-23T04:10:48.452Z,94947.99
2018-05-23T04:13:52.480Z,94952.03
2018-05-23T04:16:55.730Z,94953.75
2018-05-23T04:19:59.033Z,94956.27
2018-05-23T04:23:02.294Z,94967.59
2018-05-23T04:26:05.557Z,94973.30
2018-05-23T04:29:08.862Z,94972.42
2018-05-23T04:32:12.109Z,94975.33
2018-05-23T04:35:15.367Z,94974.25
2018-05-23T04:38:18.955Z,94977.27
2018-05-23T04:41:23.014Z,94983.69
2018-05-23T04:44:26.310Z,94987.13
2018-05-23T04:47:29.833Z,94983.27
2018-05-23T04:50:33.326Z,94986.13
2018-05-23T04:53:36.598Z,94994.19
2018-05-23T04:56:39.898Z,94994.98
2018-05-23T04:59:43.182Z,94995.05
2018-05-23T05:02:46.469Z,94998.94
2018-05-23T05:05:49.734Z,94997.48
2018-05-23T05:08:53.882Z,95004.17
2018-05-23T05:11:57.149Z,95010.70
2018-05-23T05:15:01.221Z,95014.56
2018-05-23T05:18:04.571Z,95017.02
2018-05-23T05:21:08.154Z,95018.40
2018-05-23T05:24:11.899Z,95023.20
2018-05-23T05:27:16.422Z,95025.59
2018-05-23T05:30:19.785Z,95029.28
2018-05-23T05:33:28.333Z,95026.48
2018-05-23T05:36:33.428Z,95034.69
2018-05-23T05:39:36.683Z,95042.16
2018-05-23T05:42:41.510Z,95046.00
2018-05-23T05:45:45.534Z,95036.80
2018-05-23T05:48:49.594Z,95042.72
2018-05-23T05:51:52.845Z,95052.84
2018-05-23T05:54:56.152Z,95049.53
2018-05-23T05:57:59.730Z,95050.30
2018-05-23T06:01:04.102Z,95045.77
2018-05-23T06:04:07.362Z,95052.55
2018-05-23T06:07:11.562Z,95047.25
2018-05-23T06:10:15.149Z,95051.96
2018-05-23T06:13:18.905Z,95050.98
2018-05-23T06:16:24.317Z,95052.20
2018-05-23T06:19:27.699Z,95052.52
2018-05-23T06:22:31.038Z,95048.81
2018-05-23T06:25:35.080Z,95062.59
2018-05-23T06:28:38.377Z,95062.44
2018-05-23T06:31:41.675Z,95068.14
2018-05-23T06:34:44.946Z,95063.51
2018-05-23T06:37:48.981Z,95077.58
2018-05-23T06:40:52.255Z,95068.74
2018-05-23T06:43:56.284Z,95064.56
2018-05-23T06:47:00.316Z,95066.21
2018-05-23T06:50:04.605Z,95069.29
2018-05-23T06:53:07.798Z,95059.80
2018-05-23T06:56:11.235Z,95064.02
2018-05-23T06:59:14.524Z,95067.16
2018-05-23T07:02:17.794Z,95073.38
2018-05-23T07:05:21.212Z,95077.50
2018-05-23T07:08:25.239Z,95074.17
2018-05-23T07:11:28.517Z,95076.19
2018-05-23T07:14:32.642Z,95082.08
2018-05-23T07:17:36.666Z,95075.25
2018-05-23T07:20:39.942Z,95082.80
2018-05-23T07:23:43.190Z,95083.56
2018-05-23T07:26:46.450Z,95080.89
2018-05-23T07:29:49.713Z,95076.55
2018-05-23T07:32:53.046Z,95079.28
2018-05-23T07:35:56.318Z,95079.42
2018-05-23T07:38:59.587Z,95072.11
2018-05-23T07:42:02.843Z,95069.45
2018-05-23T07:45:06.105Z,95077.59
2018-05-23T07:48:09.358Z,95074.72
2018-05-23T07:51:12.676Z,95078.17
2018-05-23T07:54:15.929Z,95077.52
2018-05-23T07:57:20.027Z,95081.61
2018-05-23T08:00:24.158Z,95089.70
2018-05-23T08:03:28.489Z,95070.92
2018-05-23T08:06:31.971Z,95075.13
2018-05-23T08:09:35.986Z,95078.74
2018-05-23T08:12:40.112Z,95083.89
2018-05-23T08:15:44.145Z,95077.59
2018-05-23T08:18:47.417Z,95076.80
2018-05-23T08:21:51.459Z,95077.79
2018-05-23T08:24:54.727Z,95077.48
2018-05-23T08:27:58.751Z,95069.97
2018-05-23T08:31:02.051Z,95076.55
2018-05-23T08:34:06.071Z,95078.04
2018-05-23T08:37:09.372Z,95082.41
2018-05-23T08:40:12.632Z,95081.80
2018-05-23T08:43:15.933Z,95079.56
2018-05-23T08:46:19.283Z,95077.16
2018-05-23T08:49:22.557Z,95090.55
2018-05-23T08:52:25.822Z,95081.53
2018-05-23T08:55:29.846Z,95084.63
2018-05-23T08:58:33.856Z,95081.64
2018-05-23T09:01:37.889Z,95079.33
2018-05-23T09:04:41.967Z,95084.59
2018-05-23T09:07:45.186Z,95090.89
2018-05-23T09:10:48.529Z,95098.23
2018-05-23T09:13:51.788Z,95097.19
2018-05-23T09:16:55.817Z,95089.44
2018-05-23T09:19:59.213Z,95098.58
2018-05-23T09:23:03.234Z,95097.89
2018-05-23T09:26:06.509Z,95098.48
2018-05-23T09:29:10.540Z,95100.52
2018-05-23T09:32:13.798Z,95102.48
2018-05-23T09:35:17.130Z,95090.98
2018-05-23T09:38:20.453Z,95090.64
2018-05-23T09:41:24.590Z,95092.74
2018-05-23T09:44:27.970Z,95086.68
2018-05-23T09:47:31.231Z,95093.86
2018-05-23T09:50:34.502Z,95103.88
2018-05-23T09:53:37.761Z,95098.32
2018-05-23T09:56:41.786Z,95094.53
2018-05-23T09:59:45.049Z,95093.35
2018-05-23T10:02:49.065Z,95089.16
2018-05-23T10:05:53.089Z,95093.96
2018-05-23T10:08:57.122Z,95084.34
2018-05-23T10:12:00.376Z,95077.72
2018-05-23T10:15:04.448Z,95083.08
2018-05-23T10:18:07.705Z,95081.05
2018-05-23T10:21:10.987Z,95083.83
2018-05-23T10:24:14.268Z,95076.20
2018-05-23T10:27:17.534Z,95073.83
2018-05-23T10:30:20.798Z,95080.42
2018-05-23T10:33:24.885Z,95082.61
2018-05-23T10:36:28.942Z,95082.41
2018-05-23T10:39:32.957Z,95081.10
2018-05-23T10:42:37.012Z,95084.86
2018-05-23T10:45:40.284Z,95085.41
2018-05-23T10:48:43.546Z,95087.06
2018-05-23T10:51:47.609Z,95085.30
2018-05-23T10:54:51.603Z,95079.48
2018-05-23T10:57:54.911Z,95082.27
2018-05-23T11:00:58.972Z,95082.51
2018-05-23T11:04:02.228Z,95079.76
2018-05-23T11:07:06.437Z,95078.02
2018-05-23T11:10:10.492Z,95084.64
2018-05-23T11:13:13.780Z,95080.95
2018-05-23T11:16:17.087Z,95073.91
2018-05-23T11:19:20.333Z,95076.30
2018-05-23T11:22:23.673Z,95067.14
2018-05-23T11:25:26.983Z,95066.70
2018-05-23T11:28:30.266Z,95069.86
2018-05-23T11:31:33.521Z,95070.75
2018-05-23T11:34:36.773Z,95066.20
2018-05-23T11:37:40.065Z,95065.20
2018-05-23T11:40:43.343Z,95061.87
2018-05-23T11:43:47.459Z,95057.28
2018-05-23T11:46:51.504Z,95054.58
2018-05-23T11:49:54.778Z,95046.10
2018-05-23T11:52:58.038Z,95048.28
2018-05-23T11:56:01.306Z,95051.88
2018-05-23T11:59:04.645Z,95047.55
2018-05-23T12:02:08.069Z,95050.45
2018-05-23T12:05:12.182Z,95043.14
2018-05-23T12:08:16.220Z,95040.88
2018-05-23T12:11:20.215Z,95041.09
2018-05-23T12:14:24.331Z,95038.09
2018-05-23T12:17:28.354Z,95039.23
2018-05-23T12:20:32.571Z,95038.36
2018-05-23T12:23:36.029Z,95031.66
2018-05-23T12:26:39.744Z,95027.47
2018-05-23T12:29:42.997Z,95027.88
2018-05-23T12:32:46.268Z,95026.13
2018-05-23T12:35:49.581Z,95018.94
2018-05-23T12:38:52.860Z,95016.93
2018-05-23T12:41:56.989Z,95013.66
2018-05-23T12:45:00.261Z,95005.12
2018-05-23T12:48:04.302Z,95007.14
2018-05-23T12:51:07.575Z,95006.78
2018-05-23T12:54:11.697Z,95009.83
2018-05-23T12:57:15.815Z,95015.05
2018-05-23T13:00:19.832Z,95002.38
2018-05-23T13:03:23.937Z,95001.95
2018-05-23T13:06:27.128Z,95001.06
2018-05-23T13:09:31.148Z,95001.65
2018-05-23T13:12:35.230Z,95003.20
2018-05-23T13:15:38.450Z,95003.41
2018-05-23T13:18:42.584Z,94999.13
2018-05-23T13:21:46.750Z,94999.25
2018-05-23T13:24:50.048Z,95000.37
2018-05-23T13:27:53.310Z,94988.45
2018-05-23T13:30:57.444Z,94986.64
2018-05-23T13:34:01.756Z,94988.42
2018-05-23T13:37:05.473Z,94985.89
2018-05-23T13:40:08.730Z,94984.59
2018-05-23T13:43:12.774Z,94970.69
2018-05-23T13:46:16.142Z,94966.18
2018-05-23T13:49:20.183Z,94967.01
2018-05-23T13:52:23.462Z,94969.18
2018-05-23T13:55:27.641Z,94967.57
2018-05-23T13:58:30.945Z,94961.98
2018-05-23T14:01:34.314Z,94953.88
2018-05-23T14:04:37.606Z,94955.12
2018-05-23T14:07:40.889Z,94954.16
2018-05-23T14:10:44.168Z,94969.77
2018-05-23T14:13:48.227Z,94966.19
2018-05-23T14:16:51.522Z,94963.68
2018-05-23T14:19:54.781Z,94957.56
2018-05-23T14:22:58.913Z,94952.03
2018-05-23T14:26:03.024Z,94947.89
2018-05-23T14:29:07.244Z,94941.33
2018-05-23T14:32:10.554Z,94937.12
2018-05-23T14:35:13.813Z,94938.55
2018-05-23T14:38:17.139Z,94938.57
2018-05-23T14:41:20.398Z,94939.86
2018-05-23T14:44:23.731Z,94934.69
2018-05-23T14:47:27.789Z,94940.36
2018-05-23T14:50:32.578Z,94944.25
2018-05-23T14:53:36.613Z,94942.66
2018-05-23T14:56:39.902Z,94947.46
2018-05-23T14:59:44.227Z,94961.69
2018-05-23T15:02:47.486Z,94960.51
2018-05-23T15:05:50.758Z,94961.88
2018-05-23T15:08:54.280Z,94968.44
2018-05-23T15:11:57.624Z,94967.60
2018-05-23T15:15:00.913Z,94974.77
2018-05-23T15:18:04.258Z,94977.28
2018-05-23T15:21:07.527Z,94978.91
2018-05-23T15:24:10.949Z,94981.03
2018-05-23T15:27:14.417Z,94972.72
2018-05-23T15:30:17.598Z,94972.43
2018-05-23T15:33:21.627Z,94976.18
2018-05-23T15:36:24.911Z,94979.37
2018-05-23T15:39:28.941Z,94978.25
2018-05-23T15:42:32.218Z,94976.59
2018-05-23T15:45:36.239Z,94977.95
2018-05-23T15:48:40.297Z,94972.17
2018-05-23T15:51:43.516Z,94981.16
2018-05-23T15:54:47.622Z,94982.41
2018-05-23T15:57:50.902Z,94985.20
2018-05-23T16:00:54.173Z,94982.52
2018-05-23T16:03:57.429Z,94982.33
2018-05-23T16:07:00.761Z,94976.75
2018-05-23T16:10:04.160Z,94976.38
2018-05-23T16:13:08.189Z,94975.22
2018-05-23T16:16:11.442Z,94975.22
2018-05-23T16:19:16.259Z,94979.31
2018-05-23T16:22:19.537Z,94976.96
2018-05-23T16:25:22.899Z,94984.80
2018-05-23T16:28:26.924Z,94978.94
2018-05-23T16:31:30.181Z,94970.69
2018-05-23T16:34:34.341Z,94971.45
2018-05-23T16:37:37.637Z,94974.91
2018-05-23T16:40:40.902Z,94971.73
2018-05-23T16:43:44.184Z,94968.84
2018-05-23T16:46:47.496Z,94976.15
2018-05-23T16:49:51.201Z,94973.80
2018-05-23T16:52:54.545Z,94978.05
2018-05-23T16:55:57.828Z,94984.48
2018-05-23T16:59:02.050Z,94978.12
2018-05-23T17:02:06.317Z,94978.20
2018-05-23T17:05:09.573Z,94986.71
2018-05-23T17:08:12.865Z,94978.59
2018-05-23T17:11:16.265Z,94988.70
2018-05-23T17:14:19.535Z,94990.82
2018-05-23T17:17:22.822Z,94988.70
2018-05-23T17:20:26.219Z,94995.66
2018-05-23T17:23:29.552Z,94997.64
2018-05-23T17:26:33.671Z,94996.37
2018-05-23T17:29:37.784Z,94997.72
2018-05-23T17:32:41.813Z,95006.34
2018-05-23T17:35:45.085Z,95011.75
2018-05-23T17:38:49.334Z,95034.31
2018-05-23T17:41:52.633Z,95033.11
2018-05-23T17:44:55.996Z,95041.17
2018-05-23T17:47:59.471Z,95051.95
2018-05-23T17:51:02.816Z,95059.67
2018-05-23T17:54:06.935Z,95065.00
2018-05-23T17:57:10.992Z,95070.48
2018-05-23T18:00:14.372Z,95080.90
2018-05-23T18:03:17.814Z,95080.25
2018-05-23T18:06:21.084Z,95102.38
2018-05-23T18:09:24.391Z,95101.90
2018-05-23T18:12:27.753Z,95109.99
2018-05-23T18:15:32.630Z,95109.70
2018-05-23T18:18:36.046Z,95115.86
2018-05-23T18:21:39.442Z,95121.77
2018-05-23T18:24:42.758Z,95127.54
2018-05-23T18:27:46.094Z,95125.55
2018-05-23T18:30:50.124Z,95126.96
2018-05-23T18:33:53.854Z,95127.06
2018-05-23T18:36:57.153Z,95128.72
2018-05-23T18:40:00.408Z,95126.05
2018-05-23T18:43:04.613Z,95119.42
2018-05-23T18:46:07.881Z,95130.98
2018-05-23T18:49:11.330Z,95125.69
2018-05-23T18:52:15.348Z,95122.08
2018-05-23T18:55:19.398Z,95129.77
2018-05-23T18:58:22.658Z,95115.64
2018-05-23T19:01:26.675Z,95105.69
2018-05-23T19:04:30.696Z,95102.41
2018-05-23T19:07:33.950Z,95092.05
2018-05-23T19:10:37.219Z,95088.28
2018-05-23T19:13:40.481Z,95088.67
2018-05-23T19:16:44.523Z,95086.13
2018-05-23T19:19:48.097Z,95078.59
2018-05-23T19:22:51.331Z,95074.01
2018-05-23T19:25:54.816Z,95071.41
2018-05-23T19:28:58.104Z,95062.94
2018-05-23T19:32:02.118Z,95058.96
2018-05-23T19:35:05.383Z,95053.98
2018-05-23T19:38:08.645Z,95058.25
2018-05-23T19:41:12.001Z,95065.69
2018-05-23T19:44:16.030Z,95068.02
2018-05-23T19:47:19.345Z,95068.86
2018-05-23T19:50:23.430Z,95063.14
2018-05-23T19:53:27.530Z,95065.16
2018-05-23T19:56:30.832Z,95065.73
2018-05-23T19:59:34.134Z,95078.73
2018-05-23T20:02:38.149Z,95078.14
2018-05-23T20:05:42.191Z,95081.14
2018-05-23T20:08:45.455Z,95085.80
2018-05-23T20:11:48.701Z,95085.20
2018-05-23T20:14:51.961Z,95095.05
2018-05-23T20:17:55.978Z,95110.63
2018-05-23T20:21:00.024Z,95110.66
2018-05-23T20:24:03.302Z,95111.23
2018-05-23T20:27:06.581Z,95107.02
2018-05-23T20:30:10.703Z,95106.53
2018-05-23T20:33:14.742Z,95110.03
2018-05-23T20:36:17.995Z,95110.46
2018-05-23T20:39:21.254Z,95113.77
2018-05-23T20:42:24.518Z,95120.08
2018-05-23T20:45:27.782Z,95129.84
2018-05-23T20:48:31.829Z,95129.17
2018-05-23T20:51:35.974Z,95122.91
2018-05-23T20:54:39.251Z,95126.16
2018-05-23T20:57:42.527Z,95119.97
2018-05-23T21:00:46.560Z,95119.86
2018-05-23T21:03:49.857Z,95124.30
2018-05-23T21:06:53.151Z,95125.01
2018-05-23T21:09:58.023Z,95120.01
2018-05-23T21:13:01.413Z,95119.46
2018-05-23T21:16:04.735Z,95118.52
2018-05-23T21:19:08.537Z,95117.99
2018-05-23T21:22:11.797Z,95117.14
2018-05-23T21:25:15.066Z,95115.84
2018-05-23T21:28:18.313Z,95115.72
2018-05-23T21:31:22.139Z,95115.39
2018-05-23T21:34:26.760Z,95119.38
2018-05-23T21:37:30.026Z,95120.39
2018-05-23T21:40:33.285Z,95120.95
2018-05-23T21:43:36.549Z,95119.86
2018-05-23T21:46:39.847Z,95123.85
2018-05-23T21:49:43.123Z,95125.30
2018-05-23T21:52:46.410Z,95123.02
2018-05-23T21:55:50.470Z,95124.14
2018-05-23T21:58:53.730Z,95126.45
2018-05-23T22:01:57.746Z,95122.16
2018-05-23T22:05:01.005Z,95124.55
2018-05-23T22:08:04.250Z,95124.48
2018-05-23T22:11:07.507Z,95125.80
2018-05-23T22:14:11.532Z,95130.59
2018-05-23T22:17:15.554Z,95137.68
2018-05-23T22:20:19.778Z,95136.59
2018-05-23T22:23:23.819Z,95135.65
2018-05-23T22:26:27.092Z,95128.73
2018-05-23T22:29:30.373Z,95128.45
2018-05-23T22:32:34.430Z,95128.72
2018-05-23T22:35:37.704Z,95132.34
2018-05-23T22:38:40.962Z,95133.42
2018-05-23T22:41:44.224Z,95134.85
2018-05-23T22:44:47.698Z,95131.79
2018-05-23T22:47:51.807Z,95135.50
2018-05-23T22:50:55.838Z,95135.38
2018-05-23T22:53:59.141Z,95135.11
2018-05-23T22:57:02.401Z,95135.71
2018-05-23T23:00:05.664Z,95133.05
2018-05-23T23:03:09.007Z,95136.42
2018-05-23T23:06:13.046Z,95136.91
2018-05-23T23:09:16.305Z,95136.00
2018-05-23T23:12:19.628Z,95138.25
2018-05-23T23:15:23.650Z,95138.37
2018-05-23T23:18:26.898Z,95133.97
2018-05-23T23:21:30.173Z,95136.98
2018-05-23T23:24:33.414Z,95130.69
2018-05-23T23:27:37.440Z,95131.34
2018-05-23T23:30:41.534Z,95134.02
2018-05-23T23:33:46.531Z,95128.44
2018-05-23T23:36:49.844Z,95122.56
2018-05-23T23:39:53.086Z,95123.34
2018-05-23T23:42:57.121Z,95113.52
2018-05-23T23:46:00.373Z,95112.12
2018-05-23T23:49:03.626Z,95113.16
2018-05-23T23:52:06.890Z,95117.17
2018-05-23T23:55:11.016Z,95119.61
2018-05-23T23:58:15.051Z,95115.41
